createdAt,value
2019-05-03T00:00:16.483Z,16.85
2019-05-03T00:05:22.059Z,16.30
2019-05-03T00:10:25.923Z,16.32
2019-05-03T00:15:32.315Z,17.17
2019-05-03T00:20:36.348Z,18.10
2019-05-03T00:25:41.491Z,17.45
2019-05-03T00:30:45.435Z,14.20
2019-05-03T00:35:51.940Z,16.55
2019-05-03T00:40:55.980Z,16.35
2019-05-03T00:45:59.591Z,16.32
2019-05-03T00:51:03.128Z,15.93
2019-05-03T00:56:06.711Z,15.90
2019-05-03T01:01:11.821Z,15.08
2019-05-03T01:06:15.587Z,15.83
2019-05-03T01:11:19.183Z,15.08
2019-05-03T01:16:24.440Z,12.70
2019-05-03T01:21:27.969Z,13.70
2019-05-03T01:26:31.974Z,13.30
2019-05-03T01:31:35.678Z,13.20
2019-05-03T01:36:39.349Z,13.08
2019-05-03T01:41:42.961Z,13.40
2019-05-03T01:46:47.511Z,13.55
2019-05-03T01:51:58.399Z,12.25
2019-05-03T01:57:02.551Z,11.93
2019-05-03T02:02:24.055Z,11.38
2019-05-03T02:07:27.699Z,11.53
2019-05-03T02:12:32.189Z,11.55
2019-05-03T02:17:36.084Z,12.25
2019-05-03T02:22:39.708Z,12.05
2019-05-03T02:27:43.266Z,12.53
2019-05-03T02:32:46.965Z,14.03
2019-05-03T02:37:53.247Z,13.90
2019-05-03T02:43:10.764Z,14.23
2019-05-03T02:48:36.395Z,14.05
2019-05-03T02:53:39.912Z,14.73
2019-05-03T02:58:45.931Z,15.98
2019-05-03T03:03:49.116Z,14.93
2019-05-03T03:08:56.135Z,16.67
2019-05-03T03:14:01.637Z,15.48
2019-05-03T03:19:06.818Z,15.13
2019-05-03T03:24:17.381Z,16.20
2019-05-03T03:29:25.254Z,16.60
2019-05-03T03:34:32.272Z,17.60
2019-05-03T03:39:36.351Z,17.50
2019-05-03T03:44:40.815Z,17.10
2019-05-03T03:49:46.482Z,15.50
2019-05-03T03:54:55.271Z,15.13
2019-05-03T03:59:58.262Z,14.50
2019-05-03T04:05:01.937Z,14.13
2019-05-03T04:10:07.079Z,14.43
2019-05-03T04:15:18.721Z,14.03
2019-05-03T04:20:25.679Z,13.45
2019-05-03T04:25:29.434Z,14.25
2019-05-03T04:30:33.030Z,14.23
2019-05-03T04:35:36.855Z,14.90
2019-05-03T04:40:40.784Z,13.83
2019-05-03T04:45:45.976Z,14.63
2019-05-03T04:50:49.581Z,14.18
2019-05-03T04:55:55.773Z,15.00
2019-05-03T05:00:58.595Z,14.20
2019-05-03T05:06:02.187Z,16.27
2019-05-03T05:11:09.721Z,15.88
2019-05-03T05:16:11.271Z,17.00
2019-05-03T05:21:16.501Z,16.17
2019-05-03T05:26:21.758Z,15.88
2019-05-03T05:31:25.529Z,15.00
2019-05-03T05:36:29.513Z,16.17
2019-05-03T05:41:34.770Z,15.68
2019-05-03T05:46:43.153Z,14.93
2019-05-03T05:56:51.344Z,15.25
2019-05-03T06:01:58.994Z,16.35
2019-05-03T06:07:04.617Z,17.67
2019-05-03T06:12:10.287Z,16.00
2019-05-03T06:17:17.995Z,17.12
2019-05-03T06:22:23.226Z,15.67
2019-05-03T06:27:31.086Z,17.82
2019-05-03T06:32:36.302Z,18.62
2019-05-03T06:37:45.934Z,18.00
2019-05-03T06:42:54.431Z,17.90
2019-05-03T06:47:55.083Z,16.95
2019-05-03T06:52:59.782Z,17.27
2019-05-03T06:58:05.071Z,17.50
2019-05-03T07:03:10.743Z,17.12
2019-05-03T07:08:34.483Z,16.25
2019-05-03T07:13:38.746Z,16.73
2019-05-03T07:18:42.297Z,18.30
2019-05-03T07:23:45.916Z,16.05
2019-05-03T07:28:50.225Z,16.65
2019-05-03T07:33:55.093Z,15.53
2019-05-03T07:38:59.062Z,20.27
2019-05-03T07:44:02.638Z,19.32
2019-05-03T07:49:06.306Z,19.35
2019-05-03T07:54:09.912Z,21.90
2019-05-03T07:59:14.975Z,19.98
2019-05-03T08:04:19.004Z,18.67
2019-05-03T08:09:24.473Z,19.57
2019-05-03T08:14:27.896Z,18.15
2019-05-03T08:19:31.539Z,16.75
2019-05-03T08:24:35.237Z,16.95
2019-05-03T08:29:38.840Z,16.57
2019-05-03T08:34:45.315Z,16.25
2019-05-03T08:39:49.051Z,16.45
2019-05-03T08:44:52.629Z,16.05
2019-05-03T08:49:56.217Z,17.12
2019-05-03T08:55:00.067Z,16.45
2019-05-03T09:00:07.542Z,15.25
2019-05-03T09:05:11.878Z,15.53
2019-05-03T09:10:35.790Z,13.50
2019-05-03T09:15:41.048Z,15.23
2019-05-03T09:20:44.922Z,14.78
2019-05-03T09:25:48.886Z,11.93
2019-05-03T09:30:52.487Z,14.73
2019-05-03T09:35:56.129Z,14.75
2019-05-03T09:40:59.779Z,16.07
2019-05-03T09:46:05.118Z,16.52
2019-05-03T09:51:08.711Z,14.70
2019-05-03T09:56:12.210Z,17.17
2019-05-03T10:01:15.887Z,17.95
2019-05-03T10:06:19.513Z,17.40
2019-05-03T10:11:25.387Z,16.32
2019-05-03T10:16:29.937Z,17.12
2019-05-03T10:21:35.592Z,16.00
2019-05-03T10:26:39.233Z,16.87
2019-05-03T10:31:50.439Z,17.40
2019-05-03T10:36:54.880Z,15.30
2019-05-03T10:41:58.490Z,15.23
2019-05-03T10:47:02.146Z,15.70
2019-05-03T10:52:07.431Z,15.25
2019-05-03T10:57:12.618Z,15.00
2019-05-03T11:02:34.937Z,13.48
2019-05-03T11:07:38.079Z,15.53
2019-05-03T11:12:41.749Z,16.87
2019-05-03T11:17:45.572Z,15.03
2019-05-03T11:22:49.445Z,15.72
2019-05-03T11:27:55.195Z,16.23
2019-05-03T11:33:00.503Z,10.10
2019-05-03T11:38:08.303Z,13.28
2019-05-03T11:43:12.088Z,13.15
2019-05-03T11:48:15.750Z,11.03
2019-05-03T11:53:19.327Z,9.63
2019-05-03T11:58:22.960Z,19.12
2019-05-03T12:03:28.213Z,6.33
2019-05-03T12:08:31.830Z,6.67
2019-05-03T12:13:35.378Z,6.97
2019-05-03T12:18:49.337Z,5.03
2019-05-03T12:23:45.927Z,5.70
2019-05-03T12:28:49.473Z,5.08
2019-05-03T12:33:55.033Z,4.20
2019-05-03T12:38:58.329Z,6.28
2019-05-03T12:44:01.906Z,4.72
2019-05-03T12:49:05.562Z,7.03
2019-05-03T12:54:09.269Z,4.55
2019-05-03T12:59:16.020Z,9.43
2019-05-03T13:04:21.346Z,7.75
2019-05-03T13:09:27.421Z,6.05
2019-05-03T13:14:31.063Z,6.92
2019-05-03T13:19:35.014Z,7.37
2019-05-03T13:24:39.203Z,6.85
2019-05-03T13:29:42.757Z,6.50
2019-05-03T13:34:46.295Z,5.50
2019-05-03T13:39:49.811Z,6.20
2019-05-03T13:44:55.173Z,5.20
2019-05-03T13:49:58.568Z,6.42
2019-05-03T13:55:02.277Z,6.25
2019-05-03T14:00:07.276Z,6.90
2019-05-03T14:05:10.972Z,7.60
2019-05-03T14:10:15.063Z,6.50
2019-05-03T14:15:20.320Z,9.48
2019-05-03T14:20:28.360Z,6.08
2019-05-03T14:25:31.926Z,5.90
2019-05-03T14:30:35.648Z,6.08
2019-05-03T14:35:40.281Z,15.00
2019-05-03T14:40:44.883Z,9.78
2019-05-03T14:45:49.208Z,13.40
2019-05-03T14:50:54.898Z,6.28
2019-05-03T14:56:08.697Z,4.67
2019-05-03T15:01:15.454Z,3.87
2019-05-03T15:06:19.233Z,4.33
2019-05-03T15:11:22.920Z,3.35
2019-05-03T15:16:28.068Z,3.92
2019-05-03T15:21:31.638Z,5.05
2019-05-03T15:26:35.718Z,5.95
2019-05-03T15:31:39.803Z,5.03
2019-05-03T15:36:45.094Z,14.53
2019-05-03T15:41:48.781Z,9.38
2019-05-03T15:46:54.559Z,8.63
2019-05-03T15:51:58.921Z,8.43
2019-05-03T15:57:02.665Z,7.80
2019-05-03T16:02:06.464Z,5.90
2019-05-03T16:07:09.940Z,7.30
2019-05-03T16:12:14.539Z,5.78
2019-05-03T16:17:18.379Z,15.03
2019-05-03T16:22:22.027Z,11.55
2019-05-03T16:27:30.033Z,12.35
2019-05-03T16:32:34.703Z,10.85
2019-05-03T16:37:38.874Z,12.88
2019-05-03T16:42:44.369Z,13.32
2019-05-03T16:47:48.083Z,13.45
2019-05-03T16:52:51.742Z,12.50
2019-05-03T16:57:55.337Z,11.53
2019-05-03T17:02:59.027Z,9.95
2019-05-03T17:08:20.252Z,10.78
2019-05-03T17:13:25.712Z,12.33
2019-05-03T17:18:31.540Z,10.45
2019-05-03T17:23:35.392Z,10.72
2019-05-03T17:28:39.076Z,11.05
2019-05-03T17:33:51.448Z,13.15
2019-05-03T17:38:49.565Z,11.68
2019-05-03T17:43:54.797Z,9.35
2019-05-03T17:48:58.404Z,11.70
2019-05-03T17:54:05.206Z,11.50
2019-05-03T17:59:10.623Z,12.05
2019-05-03T18:04:15.924Z,11.60
2019-05-03T18:09:29.921Z,11.10
2019-05-03T18:14:34.463Z,11.30
2019-05-03T18:19:38.665Z,11.18
2019-05-03T18:24:42.248Z,13.83
2019-05-03T18:29:45.840Z,15.83
2019-05-03T18:34:49.474Z,20.57
2019-05-03T18:39:54.689Z,16.82
2019-05-03T18:45:12.231Z,18.62
2019-05-03T18:50:16.157Z,22.65
2019-05-03T18:55:19.716Z,21.05
2019-05-03T19:00:25.226Z,20.20
2019-05-03T19:05:30.467Z,20.35
2019-05-03T19:10:44.686Z,20.27
2019-05-03T19:15:48.705Z,18.67
2019-05-03T19:20:52.304Z,18.95
2019-05-03T19:25:55.960Z,20.40
2019-05-03T19:31:00.143Z,17.65
2019-05-03T19:36:04.478Z,17.35
2019-05-03T19:41:08.249Z,17.40
2019-05-03T19:46:11.894Z,18.25
2019-05-03T19:51:15.524Z,19.98
2019-05-03T19:56:19.612Z,23.05
2019-05-03T20:01:27.558Z,26.12
2019-05-03T20:06:35.560Z,26.12
2019-05-03T20:11:39.192Z,23.20
2019-05-03T20:16:44.869Z,22.17
2019-05-03T20:21:48.140Z,23.73
2019-05-03T20:26:51.682Z,22.05
2019-05-03T20:31:55.346Z,20.37
2019-05-03T20:36:58.874Z,20.10
2019-05-03T20:42:04.427Z,21.48
2019-05-03T20:47:21.483Z,19.52
2019-05-03T20:52:25.028Z,21.33
2019-05-03T20:57:28.622Z,21.80
2019-05-03T21:02:32.179Z,19.70
2019-05-03T21:07:35.753Z,20.85
2019-05-03T21:12:39.407Z,21.65
2019-05-03T21:17:47.394Z,22.60
2019-05-03T21:22:51.021Z,23.95
2019-05-03T21:27:55.547Z,24.77
2019-05-03T21:32:59.306Z,25.20
2019-05-03T21:38:02.917Z,24.77
2019-05-03T21:43:06.515Z,28.75
2019-05-03T21:48:11.714Z,27.52
2019-05-03T21:53:15.302Z,27.17
2019-05-03T21:58:18.873Z,27.48
2019-05-03T22:03:22.565Z,27.58
2019-05-03T22:08:26.216Z,26.60
2019-05-03T22:13:29.843Z,27.10
2019-05-03T22:18:35.211Z,29.07
2019-05-03T22:23:40.485Z,27.73
2019-05-03T22:28:44.459Z,28.17
2019-05-03T22:33:48.227Z,29.37
2019-05-03T22:38:51.805Z,27.85
2019-05-03T22:43:55.412Z,26.68
2019-05-03T22:48:59.339Z,28.45
2019-05-03T22:54:04.650Z,28.38
2019-05-03T22:59:08.111Z,28.32
2019-05-03T23:04:11.736Z,28.70
2019-05-03T23:09:15.851Z,26.80
2019-05-03T23:14:19.535Z,27.37
2019-05-03T23:19:23.162Z,27.37
2019-05-03T23:24:26.775Z,26.42
2019-05-03T23:29:30.362Z,27.17
2019-05-03T23:34:35.102Z,25.55
2019-05-03T23:39:38.992Z,26.23
2019-05-03T23:44:42.595Z,25.92
2019-05-03T23:49:46.222Z,26.82
2019-05-03T23:54:49.812Z,26.17
2019-05-03T23:59:55.001Z,25.85
